createdAt,value
2018-12-30T00:00:24.503Z,8.20
2018-12-30T00:01:28.942Z,8.10
2018-12-30T00:02:33.473Z,8.10
2018-12-30T00:03:38.289Z,8.10
2018-12-30T00:04:43.048Z,8.10
2018-12-30T00:05:47.710Z,8.10
2018-12-30T00:06:52.464Z,8.10
2018-12-30T00:07:56.907Z,8.10
2018-12-30T00:09:01.394Z,8.10
2018-12-30T00:10:06.412Z,8.10
2018-12-30T00:11:10.959Z,8.10
2018-12-30T00:12:15.486Z,8.10
2018-12-30T00:13:19.955Z,8.10
2018-12-30T00:14:24.544Z,8.10
2018-12-30T00:15:28.947Z,8.10
2018-12-30T00:16:33.401Z,8.00
2018-12-30T00:17:37.908Z,8.00
2018-12-30T00:18:42.344Z,7.90
2018-12-30T00:19:47.057Z,7.90
2018-12-30T00:20:51.518Z,7.90
2018-12-30T00:21:56.033Z,7.90
2018-12-30T00:23:00.817Z,7.90
2018-12-30T00:24:05.271Z,7.90
2018-12-30T00:25:09.642Z,7.90
2018-12-30T00:26:14.090Z,7.90
2018-12-30T00:27:18.587Z,7.90
2018-12-30T00:28:23.289Z,7.90
2018-12-30T00:29:27.729Z,7.90
2018-12-30T00:30:32.198Z,7.90
2018-12-30T00:31:36.650Z,7.90
2018-12-30T00:32:41.270Z,7.90
2018-12-30T00:33:45.765Z,8.00
2018-12-30T00:34:50.494Z,8.00
2018-12-30T00:35:54.934Z,8.00
2018-12-30T00:36:59.329Z,8.00
2018-12-30T00:38:03.858Z,8.00
2018-12-30T00:39:08.331Z,8.00
2018-12-30T00:40:12.824Z,8.00
2018-12-30T00:41:17.468Z,8.00
2018-12-30T00:42:22.258Z,8.00
2018-12-30T00:43:26.737Z,8.10
2018-12-30T00:44:31.283Z,8.10
2018-12-30T00:45:35.698Z,8.00
2018-12-30T00:46:40.389Z,8.10
2018-12-30T00:47:44.865Z,8.10
2018-12-30T00:48:49.339Z,8.00
2018-12-30T00:49:54.018Z,8.00
2018-12-30T00:50:58.485Z,8.00
2018-12-30T00:52:02.914Z,8.00
2018-12-30T00:53:07.379Z,8.00
2018-12-30T00:54:11.967Z,8.00
2018-12-30T00:55:16.510Z,8.00
2018-12-30T00:56:21.009Z,8.00
2018-12-30T00:57:25.534Z,8.00
2018-12-30T00:58:31.089Z,8.00
2018-12-30T00:59:35.546Z,8.00
2018-12-30T01:00:40.109Z,7.90
2018-12-30T01:01:44.775Z,7.90
2018-12-30T01:02:49.537Z,8.00
2018-12-30T01:03:54.044Z,8.00
2018-12-30T01:04:58.482Z,8.00
2018-12-30T01:06:02.963Z,8.00
2018-12-30T01:07:07.984Z,8.00
2018-12-30T01:08:12.406Z,8.00
2018-12-30T01:09:16.882Z,8.10
2018-12-30T01:10:21.348Z,8.10
2018-12-30T01:11:25.813Z,8.10
2018-12-30T01:12:30.309Z,8.10
2018-12-30T01:13:34.698Z,8.00
2018-12-30T01:14:39.291Z,8.00
2018-12-30T01:15:43.812Z,8.10
2018-12-30T01:16:48.267Z,8.10
2018-12-30T01:17:52.783Z,8.10
2018-12-30T01:18:57.230Z,8.00
2018-12-30T01:20:01.738Z,8.00
2018-12-30T01:21:06.364Z,8.00
2018-12-30T01:22:11.475Z,8.00
2018-12-30T01:23:15.969Z,8.00
2018-12-30T01:24:20.410Z,8.00
2018-12-30T01:25:24.928Z,8.00
2018-12-30T01:26:29.329Z,7.90
2018-12-30T01:27:33.746Z,7.90
2018-12-30T01:28:38.233Z,7.90
2018-12-30T01:29:42.558Z,7.90
2018-12-30T01:30:47.093Z,7.90
2018-12-30T01:31:51.447Z,7.90
2018-12-30T01:32:55.906Z,7.90
2018-12-30T01:34:00.333Z,7.90
2018-12-30T01:35:04.934Z,7.80
2018-12-30T01:36:09.582Z,7.90
2018-12-30T01:37:14.065Z,7.80
2018-12-30T01:38:18.483Z,7.90
2018-12-30T01:39:22.978Z,7.90
2018-12-30T01:40:27.388Z,7.90
2018-12-30T01:41:32.085Z,7.90
2018-12-30T01:42:36.962Z,7.90
2018-12-30T01:43:41.503Z,7.90
2018-12-30T01:44:45.971Z,7.90
2018-12-30T01:45:50.484Z,7.90
2018-12-30T01:46:54.848Z,7.90
2018-12-30T01:47:59.194Z,7.90
2018-12-30T01:49:03.625Z,7.90
2018-12-30T01:50:08.149Z,7.80
2018-12-30T01:51:12.537Z,7.80
2018-12-30T01:52:16.970Z,7.90
2018-12-30T01:53:21.455Z,7.90
2018-12-30T01:54:25.931Z,7.80
2018-12-30T01:55:30.298Z,7.80
2018-12-30T01:56:34.780Z,7.80
2018-12-30T01:57:39.248Z,7.80
2018-12-30T01:58:43.962Z,7.80
2018-12-30T01:59:48.421Z,7.80
2018-12-30T02:00:52.822Z,7.80
2018-12-30T02:01:57.576Z,7.80
2018-12-30T02:03:02.275Z,7.80
2018-12-30T02:04:06.654Z,7.80
2018-12-30T02:05:11.058Z,7.80
2018-12-30T02:06:15.528Z,7.80
2018-12-30T02:07:20.019Z,7.80
2018-12-30T02:08:24.474Z,7.80
2018-12-30T02:09:28.927Z,7.90
2018-12-30T02:10:33.341Z,7.90
2018-12-30T02:11:37.802Z,7.90
2018-12-30T02:12:42.552Z,7.90
2018-12-30T02:13:46.897Z,7.90
2018-12-30T02:14:51.422Z,7.90
2018-12-30T02:15:55.799Z,7.90
2018-12-30T02:17:00.304Z,7.90
2018-12-30T02:18:04.851Z,7.80
2018-12-30T02:19:09.257Z,7.90
2018-12-30T02:20:13.681Z,7.90
2018-12-30T02:21:18.116Z,7.90
2018-12-30T02:22:22.511Z,7.90
2018-12-30T02:23:26.888Z,7.90
2018-12-30T02:24:31.581Z,7.90
2018-12-30T02:25:36.367Z,7.90
2018-12-30T02:26:40.789Z,7.90
2018-12-30T02:27:45.167Z,7.90
2018-12-30T02:28:49.545Z,8.00
2018-12-30T02:29:53.906Z,7.90
2018-12-30T02:30:58.335Z,7.90
2018-12-30T02:32:02.690Z,7.90
2018-12-30T02:33:07.251Z,8.00
2018-12-30T02:34:11.871Z,7.90
2018-12-30T02:35:16.345Z,7.90
2018-12-30T02:36:20.678Z,7.90
2018-12-30T02:37:25.074Z,7.90
2018-12-30T02:38:29.615Z,7.90
2018-12-30T02:39:34.134Z,7.90
2018-12-30T02:40:38.557Z,7.90
2018-12-30T02:41:42.974Z,7.70
2018-12-30T02:42:47.379Z,7.90
2018-12-30T02:43:51.837Z,7.90
2018-12-30T02:44:56.254Z,7.90
2018-12-30T02:46:00.649Z,7.80
2018-12-30T02:47:05.288Z,7.80
2018-12-30T02:48:10.110Z,7.80
2018-12-30T02:49:14.653Z,7.80
2018-12-30T02:50:19.156Z,7.80
2018-12-30T02:51:23.496Z,7.80
2018-12-30T02:52:27.941Z,7.80
2018-12-30T02:53:32.342Z,7.80
2018-12-30T02:54:36.845Z,7.80
2018-12-30T02:55:41.169Z,7.80
2018-12-30T02:56:45.936Z,7.80
2018-12-30T02:57:50.453Z,7.80
2018-12-30T02:58:54.834Z,7.70
2018-12-30T02:59:59.322Z,7.70
2018-12-30T03:01:03.824Z,7.80
2018-12-30T03:02:08.372Z,7.70
2018-12-30T03:03:12.759Z,7.70
2018-12-30T03:04:17.115Z,7.70
2018-12-30T03:05:21.621Z,7.70
2018-12-30T03:06:26.158Z,7.70
2018-12-30T03:07:30.495Z,7.70
2018-12-30T03:08:34.983Z,7.70
2018-12-30T03:09:39.464Z,7.70
2018-12-30T03:10:43.881Z,7.70
2018-12-30T03:11:48.589Z,7.70
2018-12-30T03:12:53.259Z,7.60
2018-12-30T03:13:57.601Z,7.60
2018-12-30T03:15:02.080Z,7.60
2018-12-30T03:16:06.576Z,7.60
2018-12-30T03:17:11.288Z,7.70
2018-12-30T03:18:15.708Z,7.60
2018-12-30T03:19:20.080Z,7.60
2018-12-30T03:20:24.466Z,7.60
2018-12-30T03:21:28.877Z,7.60
2018-12-30T03:22:33.203Z,7.60
2018-12-30T03:23:37.612Z,7.60
2018-12-30T03:24:42.015Z,7.60
2018-12-30T03:25:46.535Z,7.60
2018-12-30T03:26:50.876Z,7.50
2018-12-30T03:27:55.318Z,7.60
2018-12-30T03:28:59.653Z,7.60
2018-12-30T03:30:04.439Z,7.60
2018-12-30T03:31:08.865Z,7.60
2018-12-30T03:32:13.294Z,7.60
2018-12-30T03:33:17.672Z,7.60
2018-12-30T03:34:22.052Z,7.60
2018-12-30T03:35:26.467Z,7.60
2018-12-30T03:36:30.929Z,7.60
2018-12-30T03:37:35.322Z,7.50
2018-12-30T03:38:39.662Z,7.50
2018-12-30T03:39:43.962Z,7.50
2018-12-30T03:40:48.434Z,7.50
2018-12-30T03:41:52.758Z,7.50
2018-12-30T03:42:57.348Z,7.50
2018-12-30T03:44:01.784Z,7.40
2018-12-30T03:45:06.324Z,7.40
2018-12-30T03:46:10.854Z,7.40
2018-12-30T03:47:15.326Z,7.40
2018-12-30T03:48:19.783Z,7.40
2018-12-30T03:49:24.286Z,7.40
2018-12-30T03:50:28.620Z,7.40
2018-12-30T03:51:32.977Z,7.40
2018-12-30T03:52:37.317Z,7.50
2018-12-30T03:53:41.650Z,7.60
2018-12-30T03:54:45.949Z,7.60
2018-12-30T03:55:50.338Z,7.50
2018-12-30T03:56:54.733Z,7.50
2018-12-30T03:57:59.079Z,7.50
2018-12-30T03:59:03.378Z,7.50
2018-12-30T04:00:07.826Z,7.50
2018-12-30T04:01:12.280Z,7.50
2018-12-30T04:02:16.586Z,7.50
2018-12-30T04:03:20.951Z,7.50
2018-12-30T04:04:25.356Z,7.40
2018-12-30T04:05:29.769Z,7.40
2018-12-30T04:06:34.155Z,7.40
2018-12-30T04:07:39.213Z,7.40
2018-12-30T04:08:43.693Z,7.40
2018-12-30T04:09:48.082Z,7.40
2018-12-30T04:10:52.490Z,7.40
2018-12-30T04:11:57.044Z,7.40
2018-12-30T04:13:01.498Z,7.40
2018-12-30T04:14:05.879Z,7.40
2018-12-30T04:15:10.347Z,7.40
2018-12-30T04:16:14.710Z,7.40
2018-12-30T04:17:19.109Z,7.40
2018-12-30T04:18:23.579Z,7.40
2018-12-30T04:19:28.463Z,7.40
2018-12-30T04:20:32.784Z,7.40
2018-12-30T04:21:37.348Z,7.40
2018-12-30T04:22:41.771Z,7.30
2018-12-30T04:23:46.185Z,7.30
2018-12-30T04:24:50.648Z,7.30
2018-12-30T04:25:54.990Z,7.40
2018-12-30T04:26:59.350Z,7.40
2018-12-30T04:28:03.772Z,7.40
2018-12-30T04:29:08.323Z,7.30
2018-12-30T04:30:12.755Z,7.30
2018-12-30T04:31:17.160Z,7.30
2018-12-30T04:32:21.552Z,7.40
2018-12-30T04:33:25.875Z,7.40
2018-12-30T04:34:30.366Z,7.40
2018-12-30T04:35:34.684Z,7.40
2018-12-30T04:36:39.086Z,7.40
2018-12-30T04:37:43.491Z,7.40
2018-12-30T04:38:50.285Z,7.40
2018-12-30T04:39:54.729Z,7.40
2018-12-30T04:40:59.086Z,7.50
2018-12-30T04:42:03.548Z,7.50
2018-12-30T04:43:29.046Z,7.50
2018-12-30T04:44:33.445Z,7.50
2018-12-30T04:45:38.053Z,7.50
2018-12-30T04:46:43.824Z,7.50
2018-12-30T04:47:48.200Z,7.50
2018-12-30T04:48:52.604Z,7.50
2018-12-30T04:49:57.039Z,7.50
2018-12-30T04:51:01.519Z,7.50
2018-12-30T04:52:05.903Z,7.50
2018-12-30T04:53:10.484Z,7.50
2018-12-30T04:54:14.904Z,7.50
2018-12-30T04:55:19.304Z,7.50
2018-12-30T04:56:23.698Z,7.50
2018-12-30T04:57:28.065Z,7.50
2018-12-30T04:58:32.434Z,7.50
2018-12-30T04:59:36.985Z,7.50
2018-12-30T05:00:41.452Z,7.50
2018-12-30T05:01:45.973Z,7.50
2018-12-30T05:02:50.509Z,7.60
2018-12-30T05:03:54.925Z,7.50
2018-12-30T05:04:59.322Z,7.50
2018-12-30T05:06:03.767Z,7.60
2018-12-30T05:07:08.140Z,7.50
2018-12-30T05:08:13.140Z,7.50
2018-12-30T05:09:17.496Z,7.50
2018-12-30T05:10:21.844Z,7.50
2018-12-30T05:11:26.304Z,7.50
2018-12-30T05:12:30.853Z,7.50
2018-12-30T05:13:35.167Z,7.50
2018-12-30T05:14:39.676Z,7.50
2018-12-30T05:15:44.043Z,7.50
2018-12-30T05:16:48.528Z,7.50
2018-12-30T05:17:52.976Z,7.50
2018-12-30T05:18:57.295Z,7.50
2018-12-30T05:20:01.673Z,7.50
2018-12-30T05:21:06.028Z,7.50
2018-12-30T05:22:10.526Z,7.50
2018-12-30T05:23:14.972Z,7.50
2018-12-30T05:24:19.261Z,7.50
2018-12-30T05:25:23.650Z,7.50
2018-12-30T05:26:28.046Z,7.50
2018-12-30T05:27:32.560Z,7.50
2018-12-30T05:28:37.045Z,7.50
2018-12-30T05:29:41.421Z,7.60
2018-12-30T05:30:46.053Z,7.50
2018-12-30T05:31:50.428Z,7.50
2018-12-30T05:32:54.773Z,7.50
2018-12-30T05:33:59.298Z,7.50
2018-12-30T05:35:03.628Z,7.50
2018-12-30T05:36:08.035Z,7.50
2018-12-30T05:37:12.521Z,7.50
2018-12-30T05:38:16.829Z,7.50
2018-12-30T05:39:21.251Z,7.50
2018-12-30T05:40:25.584Z,7.50
2018-12-30T05:41:30.081Z,7.50
2018-12-30T05:42:34.442Z,7.50
2018-12-30T05:43:38.860Z,7.50
2018-12-30T05:44:43.296Z,7.50
2018-12-30T05:45:47.750Z,7.50
2018-12-30T05:46:52.161Z,7.50
2018-12-30T05:47:56.627Z,7.50
2018-12-30T05:49:01.098Z,7.50
2018-12-30T05:50:06.001Z,7.50
2018-12-30T05:51:10.451Z,7.40
2018-12-30T05:52:14.968Z,7.40
2018-12-30T05:53:19.412Z,7.50
2018-12-30T05:54:23.750Z,7.50
2018-12-30T05:55:28.573Z,7.40
2018-12-30T05:56:33.628Z,7.50
2018-12-30T05:57:38.085Z,7.50
2018-12-30T05:58:42.539Z,7.50
2018-12-30T05:59:46.903Z,7.40
2018-12-30T06:00:51.349Z,7.40
2018-12-30T06:01:55.704Z,7.40
2018-12-30T06:03:00.094Z,7.40
2018-12-30T06:04:04.528Z,7.40
2018-12-30T06:05:08.911Z,7.40
2018-12-30T06:06:13.523Z,7.40
2018-12-30T06:07:17.918Z,7.40
2018-12-30T06:08:22.434Z,7.30
2018-12-30T06:09:26.906Z,7.40
2018-12-30T06:10:31.293Z,7.30
2018-12-30T06:11:35.729Z,7.30
2018-12-30T06:12:40.089Z,7.40
2018-12-30T06:13:44.634Z,7.30
2018-12-30T06:14:49.057Z,7.30
2018-12-30T06:15:53.436Z,7.30
2018-12-30T06:16:57.825Z,7.30
2018-12-30T06:18:02.250Z,7.30
2018-12-30T06:19:06.660Z,7.30
2018-12-30T06:20:11.315Z,7.20
2018-12-30T06:21:15.686Z,7.20
2018-12-30T06:22:20.058Z,7.20
2018-12-30T06:23:24.565Z,7.20
2018-12-30T06:24:29.096Z,7.10
2018-12-30T06:25:33.464Z,7.10
2018-12-30T06:26:37.820Z,7.10
2018-12-30T06:27:42.326Z,7.10
2018-12-30T06:28:46.715Z,7.00
2018-12-30T06:29:51.154Z,7.00
2018-12-30T06:30:55.535Z,7.00
2018-12-30T06:31:59.882Z,7.00
2018-12-30T06:33:04.367Z,6.90
2018-12-30T06:34:08.812Z,6.90
2018-12-30T06:35:13.329Z,6.80
2018-12-30T06:36:17.858Z,6.80
2018-12-30T06:37:22.363Z,6.80
2018-12-30T06:38:26.709Z,6.70
2018-12-30T06:39:31.261Z,6.60
2018-12-30T06:40:35.679Z,6.60
2018-12-30T06:41:40.059Z,6.60
2018-12-30T06:42:44.402Z,6.60
2018-12-30T06:43:48.808Z,6.60
2018-12-30T06:44:53.188Z,6.60
2018-12-30T06:45:57.665Z,6.60
2018-12-30T06:47:02.017Z,6.70
2018-12-30T06:48:06.574Z,6.60
2018-12-30T06:49:11.103Z,6.60
2018-12-30T06:50:15.574Z,6.50
2018-12-30T06:51:20.064Z,6.50
2018-12-30T06:52:24.405Z,6.50
2018-12-30T06:53:28.878Z,6.60
2018-12-30T06:54:33.233Z,6.70
2018-12-30T06:55:37.650Z,6.70
2018-12-30T06:56:42.082Z,6.70
2018-12-30T06:57:46.427Z,6.80
2018-12-30T06:58:50.893Z,6.80
2018-12-30T06:59:55.333Z,6.80
2018-12-30T07:00:59.772Z,6.80
2018-12-30T07:02:04.285Z,6.80
2018-12-30T07:03:08.713Z,6.80
2018-12-30T07:04:13.361Z,6.80
2018-12-30T07:05:17.872Z,6.80
2018-12-30T07:06:22.284Z,6.70
2018-12-30T07:07:26.687Z,6.70
2018-12-30T07:08:31.020Z,6.60
2018-12-30T07:09:35.436Z,6.60
2018-12-30T07:10:39.909Z,6.50
2018-12-30T07:11:44.351Z,6.50
2018-12-30T07:12:48.799Z,6.50
2018-12-30T07:13:55.295Z,6.40
2018-12-30T07:14:59.665Z,6.40
2018-12-30T07:16:04.085Z,6.30
2018-12-30T07:17:08.453Z,6.30
2018-12-30T07:18:12.930Z,6.30
2018-12-30T07:19:17.342Z,6.30
2018-12-30T07:20:22.614Z,6.30
2018-12-30T07:21:27.399Z,6.30
2018-12-30T07:22:31.813Z,6.30
2018-12-30T07:23:36.218Z,6.30
2018-12-30T07:24:40.622Z,6.20
2018-12-30T07:25:44.985Z,6.20
2018-12-30T07:26:49.378Z,6.20
2018-12-30T07:27:53.821Z,6.20
2018-12-30T07:28:58.270Z,6.20
2018-12-30T07:30:02.759Z,6.20
2018-12-30T07:31:07.167Z,6.20
2018-12-30T07:32:11.635Z,6.00
2018-12-30T07:33:16.138Z,6.00
2018-12-30T07:34:20.469Z,6.00
2018-12-30T07:35:24.866Z,5.90
2018-12-30T07:36:29.205Z,5.90
2018-12-30T07:37:33.632Z,5.90
2018-12-30T07:38:38.104Z,5.80
2018-12-30T07:39:42.778Z,5.90
2018-12-30T07:40:47.339Z,5.80
2018-12-30T07:41:51.736Z,5.80
2018-12-30T07:42:56.168Z,5.70
2018-12-30T07:44:00.559Z,5.80
2018-12-30T07:45:05.054Z,5.70
2018-12-30T07:46:09.531Z,5.70
2018-12-30T07:47:13.948Z,5.70
2018-12-30T07:48:18.455Z,5.70
2018-12-30T07:49:22.810Z,5.70
2018-12-30T07:50:27.318Z,5.80
2018-12-30T07:51:31.873Z,5.80
2018-12-30T07:53:13.485Z,5.90
2018-12-30T07:54:21.709Z,5.90
2018-12-30T07:55:26.086Z,6.10
2018-12-30T07:56:30.441Z,6.20
2018-12-30T07:57:34.769Z,6.30
2018-12-30T07:58:39.308Z,6.40
2018-12-30T07:59:43.833Z,6.50
2018-12-30T08:00:48.258Z,6.50
2018-12-30T08:01:52.862Z,6.60
2018-12-30T08:02:57.405Z,6.70
2018-12-30T08:04:01.913Z,6.70
2018-12-30T08:05:06.385Z,6.80
2018-12-30T08:06:10.905Z,6.80
2018-12-30T08:07:15.437Z,6.90
2018-12-30T08:08:19.848Z,7.00
2018-12-30T08:09:24.319Z,7.00
2018-12-30T08:10:30.361Z,7.00
2018-12-30T08:11:34.752Z,7.00
2018-12-30T08:12:39.173Z,7.10
2018-12-30T08:13:43.712Z,7.10
2018-12-30T08:14:48.102Z,7.10
2018-12-30T08:15:52.434Z,7.10
2018-12-30T08:16:56.857Z,7.20
2018-12-30T08:18:01.308Z,7.30
2018-12-30T08:19:05.686Z,7.30
2018-12-30T08:20:10.124Z,7.30
2018-12-30T08:21:14.719Z,7.30
2018-12-30T08:22:19.736Z,7.20
2018-12-30T08:23:24.137Z,7.30
2018-12-30T08:24:28.706Z,7.30
2018-12-30T08:25:33.280Z,7.30
2018-12-30T08:26:37.709Z,7.30
2018-12-30T08:27:42.570Z,7.40
2018-12-30T08:28:47.057Z,7.40
2018-12-30T08:29:51.534Z,7.40
2018-12-30T08:30:55.866Z,7.40
2018-12-30T08:32:00.245Z,7.50
2018-12-30T08:33:04.675Z,7.50
2018-12-30T08:34:10.104Z,7.50
2018-12-30T08:35:14.720Z,7.50
2018-12-30T08:36:19.332Z,7.50
2018-12-30T08:37:23.994Z,7.50
2018-12-30T08:38:28.321Z,7.50
2018-12-30T08:39:32.687Z,7.50
2018-12-30T08:40:37.107Z,7.50
2018-12-30T08:41:41.738Z,7.50
2018-12-30T08:42:46.333Z,7.50
2018-12-30T08:43:50.806Z,7.50
2018-12-30T08:44:55.213Z,7.60
2018-12-30T08:45:59.655Z,7.50
2018-12-30T08:47:04.042Z,7.50
2018-12-30T08:48:08.457Z,7.50
2018-12-30T08:49:12.980Z,7.50
2018-12-30T08:50:17.751Z,7.60
2018-12-30T08:51:22.286Z,7.60
2018-12-30T08:52:26.646Z,7.60
2018-12-30T08:53:31.151Z,7.60
2018-12-30T08:54:35.629Z,7.70
2018-12-30T08:55:40.035Z,7.70
2018-12-30T08:56:44.469Z,7.70
2018-12-30T08:57:48.809Z,7.70
2018-12-30T08:58:53.209Z,7.70
2018-12-30T08:59:57.657Z,7.70
2018-12-30T09:01:02.190Z,7.70
2018-12-30T09:02:06.667Z,7.70
2018-12-30T09:03:11.117Z,7.80
2018-12-30T09:04:15.689Z,7.80
2018-12-30T09:05:20.220Z,7.80
2018-12-30T09:06:24.762Z,7.80
2018-12-30T09:07:29.366Z,7.80
2018-12-30T09:08:33.901Z,7.90
2018-12-30T09:09:38.509Z,7.90
2018-12-30T09:10:43.060Z,7.90
2018-12-30T09:11:47.568Z,7.90
2018-12-30T09:12:52.064Z,7.90
2018-12-30T09:13:56.513Z,7.90
2018-12-30T09:15:00.998Z,8.00
2018-12-30T09:16:05.487Z,8.00
2018-12-30T09:17:09.924Z,8.10
2018-12-30T09:18:14.436Z,8.10
2018-12-30T09:19:19.015Z,8.20
2018-12-30T09:20:23.445Z,8.20
2018-12-30T09:21:28.140Z,8.20
2018-12-30T09:22:32.848Z,8.30
2018-12-30T09:23:37.801Z,8.20
2018-12-30T09:24:42.271Z,8.20
2018-12-30T09:25:46.649Z,8.20
2018-12-30T09:26:51.097Z,8.30
2018-12-30T09:27:55.797Z,8.30
2018-12-30T09:29:00.222Z,8.30
2018-12-30T09:30:04.657Z,8.30
2018-12-30T09:31:09.148Z,8.40
2018-12-30T09:32:13.755Z,8.40
2018-12-30T09:33:18.609Z,8.40
2018-12-30T09:34:23.098Z,8.40
2018-12-30T09:35:27.544Z,8.40
2018-12-30T09:36:31.990Z,8.30
2018-12-30T09:37:36.462Z,8.30
2018-12-30T09:38:40.895Z,8.40
2018-12-30T09:39:45.478Z,8.40
2018-12-30T09:40:50.147Z,8.50
2018-12-30T09:41:54.596Z,8.50
2018-12-30T09:42:59.576Z,8.50
2018-12-30T09:44:04.683Z,8.50
2018-12-30T09:45:09.265Z,8.60
2018-12-30T09:46:14.344Z,8.50
2018-12-30T09:47:19.012Z,8.50
2018-12-30T09:48:23.644Z,8.50
2018-12-30T09:49:28.277Z,8.50
2018-12-30T09:50:32.642Z,8.50
2018-12-30T09:51:37.183Z,8.50
2018-12-30T09:52:41.742Z,8.50
2018-12-30T09:53:46.399Z,8.50
2018-12-30T09:54:51.167Z,8.50
2018-12-30T09:55:55.804Z,8.50
2018-12-30T09:57:01.512Z,8.60
2018-12-30T09:58:06.324Z,8.50
2018-12-30T09:59:10.986Z,8.50
2018-12-30T10:00:15.598Z,8.50
2018-12-30T10:01:20.525Z,8.50
2018-12-30T10:02:25.082Z,8.50
2018-12-30T10:03:29.811Z,8.60
2018-12-30T10:04:34.237Z,8.60
2018-12-30T10:05:38.652Z,8.60
2018-12-30T10:06:44.098Z,8.50
2018-12-30T10:07:48.661Z,8.50
2018-12-30T10:08:53.121Z,8.40
2018-12-30T10:09:57.685Z,8.40
2018-12-30T10:11:02.315Z,8.40
2018-12-30T10:12:06.754Z,8.40
2018-12-30T10:13:12.109Z,8.40
2018-12-30T10:14:17.446Z,8.40
2018-12-30T10:15:22.813Z,8.30
2018-12-30T10:16:27.602Z,8.20
2018-12-30T10:17:32.360Z,8.20
2018-12-30T10:18:37.145Z,8.30
2018-12-30T10:19:41.673Z,8.30
2018-12-30T10:20:46.278Z,8.30
2018-12-30T10:21:50.738Z,8.30
2018-12-30T10:22:58.934Z,8.30
2018-12-30T10:24:02.103Z,8.40
2018-12-30T10:25:06.754Z,8.40
2018-12-30T10:26:11.863Z,8.40
2018-12-30T10:27:16.399Z,8.40
2018-12-30T10:28:21.026Z,8.30
2018-12-30T10:29:25.569Z,8.30
2018-12-30T10:30:30.092Z,8.30
2018-12-30T10:31:34.704Z,8.30
2018-12-30T10:32:39.280Z,8.40
2018-12-30T10:33:44.630Z,8.40
2018-12-30T10:34:49.266Z,8.40
2018-12-30T10:35:53.780Z,8.50
2018-12-30T10:36:58.312Z,8.50
2018-12-30T10:38:02.796Z,8.50
2018-12-30T10:39:07.563Z,8.60
2018-12-30T10:40:13.316Z,8.60
2018-12-30T10:41:18.001Z,8.60
2018-12-30T10:42:22.500Z,8.60
2018-12-30T10:43:27.075Z,8.60
2018-12-30T10:44:31.673Z,8.60
2018-12-30T10:45:36.367Z,8.70
2018-12-30T10:46:40.899Z,8.80
2018-12-30T10:47:45.418Z,8.80
2018-12-30T10:48:50.099Z,8.80
2018-12-30T10:49:54.645Z,8.90
2018-12-30T10:50:59.063Z,9.00
2018-12-30T10:52:03.506Z,9.00
2018-12-30T10:53:07.934Z,9.00
2018-12-30T10:54:12.407Z,9.00
2018-12-30T10:55:19.826Z,9.00
2018-12-30T10:56:24.276Z,9.10
2018-12-30T10:57:28.748Z,9.10
2018-12-30T10:58:33.279Z,9.00
2018-12-30T10:59:37.656Z,9.10
2018-12-30T11:00:44.378Z,9.10
2018-12-30T11:01:49.263Z,9.10
2018-12-30T11:02:53.809Z,9.20
2018-12-30T11:03:58.242Z,9.30
2018-12-30T11:05:02.672Z,9.30
2018-12-30T11:06:07.102Z,9.30
2018-12-30T11:07:11.633Z,9.40
2018-12-30T11:08:16.149Z,9.40
2018-12-30T11:09:20.781Z,9.40
2018-12-30T11:10:25.197Z,9.40
2018-12-30T11:11:29.680Z,9.40
2018-12-30T11:12:34.172Z,9.40
2018-12-30T11:13:38.630Z,9.40
2018-12-30T11:14:43.134Z,9.40
2018-12-30T11:15:47.643Z,9.30
2018-12-30T11:16:53.503Z,9.30
2018-12-30T11:17:58.033Z,9.30
2018-12-30T11:19:02.456Z,9.30
2018-12-30T11:20:07.181Z,9.30
2018-12-30T11:21:11.613Z,9.20
2018-12-30T11:22:16.038Z,9.20
2018-12-30T11:23:20.549Z,9.10
2018-12-30T11:24:25.005Z,9.10
2018-12-30T11:25:29.536Z,9.00
2018-12-30T11:26:34.050Z,9.10
2018-12-30T11:27:38.480Z,9.10
2018-12-30T11:28:42.854Z,9.10
2018-12-30T11:29:49.184Z,9.10
2018-12-30T11:30:53.575Z,9.00
2018-12-30T11:31:58.414Z,9.00
2018-12-30T11:33:02.987Z,9.00
2018-12-30T11:34:07.418Z,9.00
2018-12-30T11:35:12.005Z,9.10
2018-12-30T11:36:17.591Z,9.20
2018-12-30T11:37:22.278Z,9.10
2018-12-30T11:38:26.666Z,9.30
2018-12-30T11:39:31.110Z,9.40
2018-12-30T11:40:35.638Z,9.40
2018-12-30T11:41:40.091Z,9.30
2018-12-30T11:42:44.586Z,9.40
2018-12-30T11:43:49.175Z,9.30
2018-12-30T11:44:53.638Z,9.30
2018-12-30T11:45:58.316Z,9.30
2018-12-30T11:47:02.871Z,9.30
2018-12-30T11:48:07.328Z,9.30
2018-12-30T11:49:11.843Z,9.40
2018-12-30T11:50:16.261Z,9.40
2018-12-30T11:51:20.630Z,9.30
2018-12-30T11:52:25.183Z,9.30
2018-12-30T11:53:29.663Z,9.30
2018-12-30T11:54:34.406Z,9.30
2018-12-30T11:55:38.884Z,9.40
2018-12-30T11:56:43.366Z,9.40
2018-12-30T11:57:48.146Z,9.40
2018-12-30T11:58:58.524Z,9.40
2018-12-30T12:00:02.996Z,9.40
2018-12-30T12:01:07.390Z,9.40
2018-12-30T12:02:12.097Z,9.50
2018-12-30T12:03:16.561Z,9.40
2018-12-30T12:04:21.156Z,9.50
2018-12-30T12:05:25.671Z,9.50
2018-12-30T12:06:32.042Z,9.60
2018-12-30T12:07:36.476Z,9.50
2018-12-30T12:08:40.883Z,9.30
2018-12-30T12:09:45.393Z,9.30
2018-12-30T12:10:49.868Z,9.30
2018-12-30T12:11:54.198Z,9.30
2018-12-30T12:12:58.552Z,9.30
2018-12-30T12:14:03.081Z,9.30
2018-12-30T12:15:07.562Z,9.30
2018-12-30T12:16:12.087Z,9.20
2018-12-30T12:17:16.553Z,9.30
2018-12-30T12:18:21.105Z,9.20
2018-12-30T12:19:25.501Z,9.20
2018-12-30T12:20:30.020Z,9.20
2018-12-30T12:21:34.433Z,9.20
2018-12-30T12:22:38.869Z,9.10
2018-12-30T12:23:43.349Z,9.10
2018-12-30T12:24:47.850Z,9.10
2018-12-30T12:25:52.381Z,9.10
2018-12-30T12:26:56.844Z,9.00
2018-12-30T12:28:01.284Z,9.00
2018-12-30T12:29:05.741Z,9.00
2018-12-30T12:30:10.247Z,9.00
2018-12-30T12:31:14.800Z,8.90
2018-12-30T12:32:19.864Z,8.90
2018-12-30T12:33:24.478Z,9.00
2018-12-30T12:34:28.981Z,9.10
2018-12-30T12:35:33.360Z,9.10
2018-12-30T12:36:37.793Z,9.10
2018-12-30T12:37:42.229Z,9.00
2018-12-30T12:38:46.649Z,8.90
2018-12-30T12:39:51.164Z,8.90
2018-12-30T12:40:55.623Z,9.00
2018-12-30T12:42:00.072Z,8.90
2018-12-30T12:43:04.592Z,8.90
2018-12-30T12:44:08.975Z,8.90
2018-12-30T12:45:13.622Z,8.90
2018-12-30T12:46:18.188Z,8.90
2018-12-30T12:47:22.704Z,8.90
2018-12-30T12:48:27.225Z,8.90
2018-12-30T12:49:31.658Z,8.90
2018-12-30T12:50:36.058Z,8.90
2018-12-30T12:51:40.459Z,8.90
2018-12-30T12:52:44.864Z,8.90
2018-12-30T12:53:49.436Z,9.00
2018-12-30T12:54:54.247Z,8.90
2018-12-30T12:55:58.801Z,9.00
2018-12-30T12:57:03.214Z,9.00
2018-12-30T12:58:07.687Z,9.10
2018-12-30T12:59:12.222Z,9.10
2018-12-30T13:00:16.673Z,9.00
2018-12-30T13:01:21.215Z,9.00
2018-12-30T13:02:25.650Z,9.00
2018-12-30T13:03:30.096Z,9.00
2018-12-30T13:04:34.717Z,9.00
2018-12-30T13:05:39.107Z,9.00
2018-12-30T13:06:43.657Z,9.10
2018-12-30T13:07:48.075Z,9.00
2018-12-30T13:08:53.740Z,9.10
2018-12-30T13:09:59.925Z,9.10
2018-12-30T13:11:04.384Z,9.10
2018-12-30T13:12:08.866Z,9.10
2018-12-30T13:13:13.342Z,9.10
2018-12-30T13:14:17.687Z,9.10
2018-12-30T13:15:22.134Z,9.10
2018-12-30T13:16:26.663Z,9.10
2018-12-30T13:17:31.129Z,9.10
2018-12-30T13:18:35.592Z,9.20
2018-12-30T13:19:39.983Z,9.20
2018-12-30T13:20:44.415Z,9.10
2018-12-30T13:21:48.945Z,9.20
2018-12-30T13:22:53.370Z,9.20
2018-12-30T13:23:57.746Z,9.10
2018-12-30T13:25:02.133Z,9.10
2018-12-30T13:26:06.522Z,9.10
2018-12-30T13:27:10.991Z,9.10
2018-12-30T13:28:15.436Z,9.10
2018-12-30T13:29:19.881Z,9.10
2018-12-30T13:30:24.978Z,9.10
2018-12-30T13:31:29.561Z,9.20
2018-12-30T13:32:33.966Z,9.20
2018-12-30T13:33:38.356Z,9.20
2018-12-30T13:34:42.834Z,9.20
2018-12-30T13:35:47.485Z,9.10
2018-12-30T13:36:52.022Z,9.10
2018-12-30T13:37:56.446Z,9.20
2018-12-30T13:39:01.093Z,9.10
2018-12-30T13:40:05.597Z,9.10
2018-12-30T13:41:09.989Z,9.10
2018-12-30T13:42:14.400Z,9.10
2018-12-30T13:43:18.805Z,9.20
2018-12-30T13:44:23.462Z,9.10
2018-12-30T13:45:28.180Z,9.20
2018-12-30T13:46:32.593Z,9.10
2018-12-30T13:47:37.092Z,9.10
2018-12-30T13:48:41.567Z,9.10
2018-12-30T13:49:45.944Z,9.10
2018-12-30T13:50:50.374Z,9.10
2018-12-30T13:51:54.852Z,9.10
2018-12-30T13:52:59.458Z,9.20
2018-12-30T13:54:03.929Z,9.20
2018-12-30T13:55:08.771Z,9.20
2018-12-30T13:56:13.365Z,9.20
2018-12-30T13:57:17.998Z,9.10
2018-12-30T13:58:22.350Z,9.10
2018-12-30T13:59:26.964Z,9.10
2018-12-30T14:00:31.412Z,9.10
2018-12-30T14:01:36.040Z,9.10
2018-12-30T14:02:40.656Z,9.00
2018-12-30T14:03:45.053Z,9.00
2018-12-30T14:04:49.538Z,9.00
2018-12-30T14:05:53.992Z,9.00
2018-12-30T14:06:58.453Z,8.90
2018-12-30T14:08:02.947Z,8.90
2018-12-30T14:09:08.105Z,8.80
2018-12-30T14:10:12.654Z,8.80
2018-12-30T14:11:17.094Z,8.80
2018-12-30T14:12:21.616Z,8.70
2018-12-30T14:13:26.299Z,8.70
2018-12-30T14:14:30.736Z,8.60
2018-12-30T14:15:35.157Z,8.60
2018-12-30T14:16:39.536Z,8.60
2018-12-30T14:17:43.952Z,8.50
2018-12-30T14:18:48.338Z,8.50
2018-12-30T14:19:54.101Z,8.50